Time;durP1;ratioP1;P1;durP2;ratioP2;P2;SDS_P1;SDS_P2;PMS_P1;PMS_P2;Temp;Humidity;BMP_temperature;BMP_pressure;BME280_temperature;BME280_humidity;BME280_pressure;Samples;Min_cycle;Max_cycle;Signal;HPM_P1;HPM_P2
2022/11/30 00:01:19;;;;;;;31.60;18.33;;;;;;;12.97;63.61;102123.13;4916824;29;20052;-67
2022/11/30 00:03:46;;;;;;;29.50;17.98;;;;;;;12.89;63.44;102125.44;4916911;29;20055;-68
2022/11/30 00:06:15;;;;;;;33.45;18.50;;;;;;;12.85;63.78;102123.88;4916398;29;20052;-68
2022/11/30 00:08:42;;;;;;;31.25;18.15;;;;;;;12.78;63.78;102128.78;4898985;29;20048;-68
2022/11/30 00:11:14;;;;;;;29.60;18.70;;;;;;;12.73;63.67;102131.75;4898108;29;20500;-68
2022/11/30 00:13:41;;;;;;;31.63;19.30;;;;;;;12.71;63.63;102135.50;4906822;29;20055;-68
2022/11/30 00:16:08;;;;;;;32.20;18.75;;;;;;;12.67;63.96;102131.25;4929822;29;20112;-68
2022/11/30 00:18:35;;;;;;;30.63;18.77;;;;;;;12.64;63.71;102126.91;4907823;29;20047;-67
2022/11/30 00:21:04;;;;;;;31.00;18.35;;;;;;;12.62;63.87;102128.78;4934798;29;20043;-67
2022/11/30 00:23:36;;;;;;;28.75;18.30;;;;;;;12.60;63.97;102128.00;4938571;29;20513;-67
2022/11/30 00:26:05;;;;;;;26.38;17.95;;;;;;;12.59;63.70;102125.41;4920354;29;20044;-68
2022/11/30 00:28:34;;;;;;;29.52;17.88;;;;;;;12.63;64.02;102126.97;4930149;29;20056;-68
2022/11/30 00:31:06;;;;;;;28.50;17.73;;;;;;;12.64;64.01;102129.59;4920069;29;20499;-68
2022/11/30 00:33:36;;;;;;;25.30;16.63;;;;;;;12.67;63.95;102139.31;4922304;29;20042;-67
2022/11/30 00:36:07;;;;;;;30.05;17.90;;;;;;;12.66;64.18;102141.16;4938037;29;20491;-67
2022/11/30 00:38:34;;;;;;;28.10;18.23;;;;;;;12.70;64.11;102131.94;4939170;29;20044;-66
2022/11/30 00:41:02;;;;;;;28.20;17.23;;;;;;;12.73;64.14;102131.75;4930438;29;20048;-67
2022/11/30 00:43:29;;;;;;;25.85;17.90;;;;;;;12.77;63.96;102129.72;4919637;29;20048;-67
2022/11/30 00:45:55;;;;;;;24.45;17.30;;;;;;;12.79;63.93;102143.97;4919873;29;20048;-67
2022/11/30 00:48:22;;;;;;;26.77;18.00;;;;;;;12.76;64.03;102124.44;4934687;29;20051;-68
2022/11/30 00:50:49;;;;;;;30.33;18.52;;;;;;;12.77;63.66;102124.34;4919488;29;20044;-67
2022/11/30 00:53:17;;;;;;;29.80;17.65;;;;;;;12.79;64.08;102133.19;4887419;29;20478;-68
2022/11/30 00:55:44;;;;;;;26.42;17.50;;;;;;;12.81;63.98;102130.41;4920521;29;20055;-67
2022/11/30 00:58:11;;;;;;;26.42;17.98;;;;;;;12.81;63.70;102133.09;4916008;29;20062;-67
2022/11/30 01:00:39;;;;;;;25.77;17.20;;;;;;;12.81;63.78;102135.81;4903336;29;20586;-68
2022/11/30 01:03:06;;;;;;;27.05;17.20;;;;;;;12.81;63.96;102135.81;4917143;29;20446;-67
2022/11/30 01:05:33;;;;;;;26.70;17.17;;;;;;;12.82;63.92;102124.06;4937112;29;20048;-67
2022/11/30 01:08:01;;;;;;;25.17;17.55;;;;;;;12.82;63.88;102133.03;4922250;29;20443;-68
2022/11/30 01:10:29;;;;;;;25.35;17.00;;;;;;;12.80;63.83;102129.53;4939222;29;20512;-68
2022/11/30 01:12:55;;;;;;;29.52;17.25;;;;;;;12.79;63.33;102127.81;4936916;29;20044;-67
2022/11/30 01:15:22;;;;;;;24.90;17.25;;;;;;;12.75;63.30;102134.34;4938666;29;20487;-67
2022/11/30 01:17:49;;;;;;;25.17;17.50;;;;;;;12.72;63.72;102132.69;4930462;29;20088;-67
2022/11/30 01:20:16;;;;;;;26.20;16.20;;;;;;;12.71;63.49;102147.13;4931526;29;20047;-69
2022/11/30 01:22:42;;;;;;;26.38;16.92;;;;;;;12.69;63.43;102146.34;4916700;29;20048;-68
2022/11/30 01:25:09;;;;;;;25.67;17.23;;;;;;;12.66;63.60;102151.94;4902235;29;20044;-67
2022/11/30 01:27:36;;;;;;;27.40;17.42;;;;;;;12.63;63.50;102149.41;4919442;29;20036;-67
2022/11/30 01:30:04;;;;;;;23.20;16.85;;;;;;;12.61;63.26;102150.44;4899827;29;20048;-67
2022/11/30 01:32:30;;;;;;;23.38;17.00;;;;;;;12.58;63.62;102154.19;4920797;29;20051;-68
2022/11/30 01:34:57;;;;;;;22.25;16.27;;;;;;;12.59;63.51;102158.63;4930476;29;20100;-68
2022/11/30 01:37:24;;;;;;;21.92;16.85;;;;;;;12.59;63.18;102161.31;4908386;29;20044;-69
2022/11/30 01:39:50;;;;;;;21.23;15.85;;;;;;;12.56;63.45;102163.31;4911397;29;20483;-67
2022/11/30 01:42:19;;;;;;;22.52;15.55;;;;;;;12.55;63.20;102162.44;4884015;29;20056;-67
2022/11/30 01:44:50;;;;;;;23.48;16.73;;;;;;;12.55;63.31;102165.13;4912557;29;20104;-67
2022/11/30 01:47:18;;;;;;;21.55;16.27;;;;;;;12.54;63.29;102158.00;4905638;29;20048;-67
2022/11/30 01:49:48;;;;;;;22.45;17.15;;;;;;;12.55;63.30;102162.44;4927654;29;20098;-66
2022/11/30 01:52:50;;;;;;;27.58;17.30;;;;;;;12.55;63.12;102169.66;4934877;29;20418;-67
2022/11/30 01:55:35;;;;;;;24.27;17.15;;;;;;;12.53;63.40;102164.34;4864759;29;20056;-66
2022/11/30 01:58:10;;;;;;;22.80;16.85;;;;;;;12.54;63.16;102165.22;4917906;29;20048;-67
2022/11/30 02:00:42;;;;;;;25.13;18.92;;;;;;;12.51;62.93;102168.97;4916850;29;20035;-67
2022/11/30 02:03:39;;;;;;;25.65;18.75;;;;;;;12.49;63.41;102178.09;4937890;29;20130;-67
2022/11/30 02:06:07;;;;;;;25.35;18.10;;;;;;;12.50;62.97;102185.22;4934780;29;20515;-66
2022/11/30 02:08:33;;;;;;;27.75;19.23;;;;;;;12.49;62.88;102178.97;4923066;29;20435;-65
2022/11/30 02:11:04;;;;;;;26.98;19.02;;;;;;;12.49;62.85;102172.72;4920814;29;20127;-67
2022/11/30 02:13:46;;;;;;;25.95;18.42;;;;;;;12.50;62.95;102177.16;4919383;29;20050;-67
2022/11/30 02:16:57;;;;;;;25.48;19.15;;;;;;;12.50;62.83;102179.84;4938145;29;20394;-67
2022/11/30 02:19:42;;;;;;;27.88;20.45;;;;;;;12.48;63.03;102179.94;4807122;29;20072;-67
2022/11/30 02:22:41;;;;;;;25.92;18.67;;;;;;;12.46;63.00;102183.66;4908646;29;20514;-67
2022/11/30 02:25:17;;;;;;;25.08;19.90;;;;;;;12.44;62.88;102175.66;4920440;29;20067;-67
2022/11/30 02:27:55;;;;;;;25.65;19.02;;;;;;;12.41;62.94;102176.72;4918201;29;20044;-66
2022/11/30 02:30:23;;;;;;;29.00;19.27;;;;;;;12.39;62.74;102178.63;4917981;29;20466;-68
2022/11/30 02:32:57;;;;;;;25.10;18.77;;;;;;;12.37;62.78;102174.28;4917812;29;20491;-67
2022/11/30 02:35:28;;;;;;;24.73;18.48;;;;;;;12.37;62.78;102179.69;4918283;29;20048;-67
2022/11/30 02:37:56;;;;;;;28.48;19.23;;;;;;;12.37;62.76;102179.69;4905282;29;20087;-67
2022/11/30 02:40:23;;;;;;;25.00;18.95;;;;;;;12.37;62.86;102183.25;4925023;29;20040;-67
2022/11/30 02:42:52;;;;;;;26.20;19.25;;;;;;;12.39;62.82;102184.03;4936673;29;20052;-67
2022/11/30 02:45:28;;;;;;;24.58;18.75;;;;;;;12.40;62.96;102182.19;4937324;29;20091;-67
2022/11/30 02:48:08;;;;;;;24.30;19.50;;;;;;;12.41;62.85;102181.25;4912225;29;20049;-67
2022/11/30 02:50:43;;;;;;;25.52;19.23;;;;;;;12.44;62.66;102180.19;4899108;29;20052;-68
2022/11/30 02:53:10;;;;;;;23.55;18.80;;;;;;;12.45;62.66;102182.81;4934315;29;20039;-67
2022/11/30 02:55:36;;;;;;;25.42;19.00;;;;;;;12.45;62.64;102181.94;4901016;29;20510;-67
2022/11/30 02:58:04;;;;;;;24.90;18.48;;;;;;;12.45;62.63;102180.09;4911200;29;20101;-67
2022/11/30 03:00:31;;;;;;;27.48;20.50;;;;;;;12.43;62.47;102175.75;4900541;29;20055;-67
2022/11/30 03:02:57;;;;;;;25.45;19.05;;;;;;;12.43;62.28;102179.31;4900744;29;20119;-67
2022/11/30 03:05:24;;;;;;;26.85;19.27;;;;;;;12.43;62.64;102182.03;4900709;29;20131;-67
2022/11/30 03:07:50;;;;;;;27.38;20.70;;;;;;;12.41;62.15;102181.25;4917581;29;20399;-68
2022/11/30 03:10:17;;;;;;;28.63;19.65;;;;;;;12.40;62.33;102180.38;4917398;29;20051;-67
2022/11/30 03:12:43;;;;;;;26.63;20.30;;;;;;;12.38;62.25;102184.09;4897101;29;20048;-67
2022/11/30 03:15:10;;;;;;;28.02;19.00;;;;;;;12.37;62.19;102182.38;4898748;29;20049;-67
2022/11/30 03:17:36;;;;;;;27.70;19.25;;;;;;;12.35;62.10;102179.75;4898566;29;20499;-67
2022/11/30 03:20:04;;;;;;;25.15;18.80;;;;;;;12.34;62.32;102177.16;4912507;29;20049;-67
2022/11/30 03:22:30;;;;;;;25.88;20.80;;;;;;;12.29;62.43;102173.88;4916876;29;20043;-68
2022/11/30 03:24:57;;;;;;;27.23;19.38;;;;;;;12.28;62.10;102174.81;4900589;29;20096;-67
2022/11/30 03:27:23;;;;;;;24.35;18.98;;;;;;;12.27;62.10;102179.34;4899994;29;20048;-67
2022/11/30 03:29:50;;;;;;;24.75;18.38;;;;;;;12.24;62.25;102178.66;4882047;29;20049;-68
2022/11/30 03:32:17;;;;;;;25.02;19.17;;;;;;;12.21;62.25;102192.28;4900106;29;20548;-67
2022/11/30 03:34:44;;;;;;;27.15;19.90;;;;;;;12.16;62.31;102186.28;4917351;29;20044;-68
2022/11/30 03:37:11;;;;;;;25.90;19.13;;;;;;;12.14;62.08;102188.19;4916877;29;20033;-67
2022/11/30 03:39:37;;;;;;;25.92;18.27;;;;;;;12.14;62.01;102190.88;4916856;29;20044;-67
2022/11/30 03:42:04;;;;;;;27.20;18.70;;;;;;;12.13;62.22;102191.84;4916525;29;20158;-67
2022/11/30 03:44:30;;;;;;;25.05;18.92;;;;;;;12.12;62.24;102190.09;4917364;29;20103;-67
2022/11/30 03:46:57;;;;;;;25.90;19.17;;;;;;;12.09;62.07;102181.25;4914529;29;20111;-68
2022/11/30 03:49:23;;;;;;;28.92;19.35;;;;;;;12.11;62.13;102188.38;4927976;29;20040;-67
2022/11/30 03:51:50;;;;;;;29.25;19.73;;;;;;;12.09;62.37;102191.16;4935213;29;20047;-68
2022/11/30 03:54:16;;;;;;;27.90;20.35;;;;;;;12.08;62.34;102198.34;4936125;29;20106;-68
2022/11/30 03:56:43;;;;;;;24.75;18.48;;;;;;;12.08;62.04;102192.97;4929644;29;20036;-67
2022/11/30 03:59:09;;;;;;;28.52;19.95;;;;;;;12.08;62.35;102200.19;4916347;29;20045;-67
2022/11/30 04:01:40;;;;;;;27.38;19.40;;;;;;;12.07;62.45;102198.44;4895646;29;20095;-68
2022/11/30 04:04:07;;;;;;;25.58;20.13;;;;;;;12.03;62.21;102199.56;4904663;29;20071;-67
2022/11/30 04:06:33;;;;;;;25.95;20.08;;;;;;;12.01;62.06;102196.97;4913127;29;20044;-67
2022/11/30 04:09:00;;;;;;;26.40;18.98;;;;;;;12.01;62.04;102199.66;4915827;29;20051;-67
2022/11/30 04:11:28;;;;;;;26.90;19.80;;;;;;;12.00;62.11;102202.44;4920358;29;20415;-68
2022/11/30 04:13:54;;;;;;;25.15;18.58;;;;;;;11.98;62.23;102197.13;4903154;29;20044;-68
2022/11/30 04:16:21;;;;;;;26.77;19.10;;;;;;;11.98;61.93;102204.34;4887785;29;20040;-68
2022/11/30 04:18:48;;;;;;;27.65;19.77;;;;;;;11.97;61.89;102208.84;4930103;29;20069;-68
2022/11/30 04:21:14;;;;;;;29.17;19.63;;;;;;;11.93;62.18;102207.28;4915958;29;20048;-68
2022/11/30 04:23:41;;;;;;;26.05;19.63;;;;;;;11.92;61.94;102207.38;4938560;29;20510;-68
2022/11/30 04:26:11;;;;;;;25.55;18.52;;;;;;;11.91;62.39;102205.63;4939696;29;20036;-67
2022/11/30 04:28:37;;;;;;;27.10;18.38;;;;;;;11.89;61.96;102199.44;4922589;29;20439;-67
2022/11/30 04:31:05;;;;;;;27.30;18.83;;;;;;;11.89;61.94;102202.13;4931948;29;20033;-68
2022/11/30 04:33:32;;;;;;;24.85;19.63;;;;;;;11.88;62.30;102198.56;4918179;29;20048;-68
2022/11/30 04:36:02;;;;;;;22.98;17.20;;;;;;;11.88;62.04;102195.00;4915700;29;20044;-67
2022/11/30 04:38:29;;;;;;;24.90;17.75;;;;;;;11.86;62.45;102195.09;4911868;29;20090;-67
2022/11/30 04:40:55;;;;;;;28.23;19.25;;;;;;;11.82;62.08;102188.13;4938509;29;20040;-68
2022/11/30 04:43:22;;;;;;;27.77;19.85;;;;;;;11.81;62.28;102191.78;4933628;29;20056;-67
2022/11/30 04:45:49;;;;;;;25.80;18.52;;;;;;;11.79;62.12;102193.69;4919798;29;20040;-67
2022/11/30 04:48:17;;;;;;;26.90;19.80;;;;;;;11.76;62.33;102196.50;4918520;29;20451;-68
2022/11/30 04:50:44;;;;;;;27.98;20.05;;;;;;;11.75;62.37;102192.09;4920438;29;20079;-67
2022/11/30 04:53:11;;;;;;;28.02;20.38;;;;;;;11.71;62.33;102202.16;4919334;29;20040;-67
2022/11/30 04:55:39;;;;;;;27.52;21.05;;;;;;;11.70;62.13;102197.72;4903501;29;20048;-68
2022/11/30 04:58:06;;;;;;;29.80;20.23;;;;;;;11.66;62.23;102197.97;4903159;29;20398;-67
2022/11/30 05:00:34;;;;;;;25.65;18.98;;;;;;;11.63;62.11;102192.75;4902657;29;20116;-67
2022/11/30 05:03:00;;;;;;;26.92;20.10;;;;;;;11.63;62.18;102195.44;4922848;29;20035;-67
2022/11/30 05:05:27;;;;;;;24.63;18.50;;;;;;;11.61;62.32;102198.22;4908728;29;20049;-67
2022/11/30 05:07:56;;;;;;;25.08;18.58;;;;;;;11.60;62.22;102209.06;4910960;29;20495;-67
2022/11/30 05:10:23;;;;;;;25.15;18.58;;;;;;;11.61;62.55;102202.72;4903142;29;20127;-67
2022/11/30 05:12:50;;;;;;;25.02;17.85;;;;;;;11.62;62.60;102201.78;4919829;29;20040;-67
2022/11/30 05:15:17;;;;;;;26.40;19.13;;;;;;;11.62;62.39;102201.78;4905362;29;20494;-68
2022/11/30 05:17:44;;;;;;;24.05;18.02;;;;;;;11.62;62.23;102201.78;4902150;29;20045;-68
2022/11/30 05:20:10;;;;;;;26.10;18.15;;;;;;;11.60;62.04;102203.69;4895188;29;20108;-67
2022/11/30 05:22:37;;;;;;;25.40;17.75;;;;;;;11.58;62.31;102210.97;4900463;29;20041;-67
2022/11/30 05:25:04;;;;;;;28.35;19.45;;;;;;;11.56;61.91;102211.03;4911961;29;20040;-67
2022/11/30 05:27:30;;;;;;;25.73;17.80;;;;;;;11.52;61.81;102204.09;4918712;29;20084;-66
2022/11/30 05:29:57;;;;;;;26.38;17.55;;;;;;;11.48;61.81;102212.41;4902673;29;20043;-67
2022/11/30 05:32:24;;;;;;;23.92;17.30;;;;;;;11.44;62.09;102212.56;4916862;29;20099;-67
2022/11/30 05:34:50;;;;;;;24.27;17.48;;;;;;;11.41;61.83;102215.41;4914427;29;20049;-68
2022/11/30 05:37:18;;;;;;;21.30;16.50;;;;;;;11.38;61.87;102209.34;4926562;29;20554;-68
2022/11/30 05:39:44;;;;;;;23.98;17.17;;;;;;;11.34;61.71;102223.91;4910257;29;20072;-69
2022/11/30 05:42:11;;;;;;;22.30;16.77;;;;;;;11.31;61.61;102224.94;4912379;29;20059;-67
2022/11/30 05:44:37;;;;;;;23.52;17.60;;;;;;;11.28;61.85;102221.53;4919333;29;20051;-68
2022/11/30 05:47:04;;;;;;;22.15;17.15;;;;;;;11.25;61.37;102227.06;4901549;29;20040;-67
2022/11/30 05:49:31;;;;;;;22.88;17.75;;;;;;;11.22;61.70;102227.22;4919311;29;20044;-67
2022/11/30 05:51:57;;;;;;;24.92;17.45;;;;;;;11.18;61.33;102226.50;4904844;29;20056;-67
2022/11/30 05:54:24;;;;;;;24.15;16.90;;;;;;;11.13;61.69;102218.66;4900156;29;20048;-68
2022/11/30 05:56:50;;;;;;;25.65;16.75;;;;;;;11.09;61.54;102219.75;4912953;29;20080;-68
2022/11/30 05:59:24;;;;;;;23.52;16.90;;;;;;;11.06;61.23;102224.41;4909284;29;20045;-66
2022/11/30 06:01:51;;;;;;;25.48;17.55;;;;;;;11.04;61.40;102232.56;4901216;29;20036;-67
2022/11/30 06:04:18;;;;;;;23.92;16.83;;;;;;;11.01;61.39;102231.84;4918469;29;20119;-68
2022/11/30 06:06:45;;;;;;;23.75;16.95;;;;;;;10.98;61.51;102230.19;4911138;29;20040;-67
2022/11/30 06:09:14;;;;;;;24.10;17.02;;;;;;;10.97;61.42;102230.28;4925108;29;20500;-67
2022/11/30 06:11:41;;;;;;;22.10;16.40;;;;;;;10.94;61.58;102228.59;4915070;29;20391;-67
2022/11/30 06:14:07;;;;;;;24.10;16.13;;;;;;;10.93;61.67;102229.56;4918919;29;20048;-67
2022/11/30 06:16:34;;;;;;;26.30;16.73;;;;;;;10.90;61.69;102226.16;4900053;29;20487;-67
2022/11/30 06:19:00;;;;;;;22.48;15.80;;;;;;;10.88;61.43;102241.47;4918095;29;20089;-67
2022/11/30 06:21:27;;;;;;;21.83;15.10;;;;;;;10.85;61.36;102238.94;4917837;29;20041;-68
2022/11/30 06:23:54;;;;;;;20.77;14.63;;;;;;;10.80;61.61;102240.06;4912375;29;20048;-67
2022/11/30 06:26:20;;;;;;;19.58;14.63;;;;;;;10.78;61.16;102241.06;4916408;29;20063;-67
2022/11/30 06:28:47;;;;;;;22.02;15.75;;;;;;;10.76;61.15;102243.84;4882392;29;20053;-67
2022/11/30 06:31:14;;;;;;;23.58;15.20;;;;;;;10.72;61.28;102238.69;4882968;29;20040;-68
2022/11/30 06:33:41;;;;;;;21.65;15.82;;;;;;;10.70;61.28;102240.59;4905792;29;20498;-68
2022/11/30 06:36:08;;;;;;;20.88;14.70;;;;;;;10.66;61.44;102242.56;4918359;29;20146;-67
2022/11/30 06:38:35;;;;;;;20.33;15.27;;;;;;;10.64;61.32;102249.81;4918479;29;20039;-67
2022/11/30 06:41:08;;;;;;;19.45;14.45;;;;;;;10.61;61.29;102251.78;4918172;29;20075;-67
2022/11/30 06:43:37;;;;;;;21.35;15.38;;;;;;;10.58;61.28;102255.50;4917811;29;20116;-67
2022/11/30 06:46:05;;;;;;;23.30;15.30;;;;;;;10.55;61.25;102254.78;4918620;29;20036;-67
2022/11/30 06:48:33;;;;;;;19.35;14.13;;;;;;;10.52;61.14;102252.22;4917085;29;20467;-67
2022/11/30 06:51:07;;;;;;;21.60;15.15;;;;;;;10.49;61.36;102251.44;4917726;29;20086;-67
2022/11/30 06:53:35;;;;;;;21.05;14.60;;;;;;;10.47;61.33;102250.63;4915301;29;20048;-67
2022/11/30 06:56:05;;;;;;;20.58;13.48;;;;;;;10.45;61.35;102249.84;4903298;29;20032;-67
2022/11/30 06:58:37;;;;;;;16.90;12.88;;;;;;;10.45;61.18;102257.03;4898727;29;20037;-66
2022/11/30 07:01:06;;;;;;;18.38;13.80;;;;;;;10.44;61.35;102260.66;4910736;29;20040;-66
2022/11/30 07:03:33;;;;;;;18.92;13.07;;;;;;;10.43;61.19;102264.28;4942139;29;20052;-67
2022/11/30 07:06:00;;;;;;;18.67;13.52;;;;;;;10.41;61.38;102260.81;4938286;29;20491;-66
2022/11/30 07:08:26;;;;;;;18.70;13.40;;;;;;;10.40;61.33;102265.31;4936538;29;20048;-67
2022/11/30 07:10:53;;;;;;;18.60;14.43;;;;;;;10.38;61.40;102271.66;4935406;29;20157;-66
2022/11/30 07:13:19;;;;;;;20.48;14.35;;;;;;;10.35;61.38;102269.13;4917524;29;20051;-68
2022/11/30 07:15:46;;;;;;;21.58;14.73;;;;;;;10.33;61.47;102268.31;4917269;29;20040;-67
2022/11/30 07:18:12;;;;;;;18.92;13.50;;;;;;;10.29;61.33;102274.78;4900785;29;20096;-68
2022/11/30 07:20:39;;;;;;;20.85;13.63;;;;;;;10.27;61.28;102279.34;4917514;29;20044;-67
2022/11/30 07:26:05;;;;;;;18.52;14.27;;;;;;;10.22;61.36;102284.94;4918023;29;20050;-66
2022/11/30 07:28:37;;;;;;;20.00;13.88;;;;;;;10.19;61.37;102285.91;4917223;29;20040;-67
2022/11/30 07:31:14;;;;;;;17.67;13.50;;;;;;;10.17;61.31;102292.31;4917585;29;20036;-67
2022/11/30 07:33:45;;;;;;;18.40;13.55;;;;;;;10.15;61.31;102295.06;4917194;29;20067;-66
2022/11/30 07:36:12;;;;;;;19.75;13.15;;;;;;;10.12;61.25;102297.00;4917501;29;20044;-66
2022/11/30 07:38:38;;;;;;;19.42;13.50;;;;;;;10.09;61.30;102295.34;4917401;29;20407;-66
2022/11/30 07:41:05;;;;;;;21.45;14.32;;;;;;;10.06;61.41;102298.16;4917238;29;20041;-66
2022/11/30 07:43:32;;;;;;;15.00;10.88;;;;;;;10.03;61.15;102305.50;4916705;29;20044;-66
2022/11/30 07:46:17;;;;;;;28.05;10.40;;;;;;;9.96;61.39;102307.59;4917059;29;20044;-66
2022/11/30 07:48:45;;;;;;;10.98;7.55;;;;;;;9.92;61.31;102305.09;4917314;29;20530;-66
2022/11/30 07:51:20;;;;;;;8.80;6.47;;;;;;;9.88;61.12;102317.78;4919512;29;20040;-66
2022/11/30 07:53:47;;;;;;;8.82;7.20;;;;;;;9.85;61.17;102316.13;4936280;29;20111;-66
2022/11/30 07:56:17;;;;;;;9.73;7.60;;;;;;;9.81;61.16;102322.56;4919063;29;20491;-67
2022/11/30 07:58:44;;;;;;;9.52;7.53;;;;;;;9.78;61.14;102319.13;4926406;29;20044;-67
2022/11/30 08:01:13;;;;;;;8.02;6.85;;;;;;;9.76;61.42;102319.22;4936035;29;20499;-66
2022/11/30 08:03:40;;;;;;;8.20;7.30;;;;;;;9.77;61.38;102322.75;4936057;29;20130;-66
2022/11/30 08:06:12;;;;;;;8.82;7.35;;;;;;;9.77;61.36;102323.63;4935920;29;20063;-66
2022/11/30 08:08:43;;;;;;;9.27;7.50;;;;;;;9.76;61.38;102319.22;4935841;29;20047;-66
2022/11/30 08:11:13;;;;;;;7.57;6.78;;;;;;;9.78;61.46;102329.88;4934336;29;20103;-67
2022/11/30 08:13:40;;;;;;;9.65;7.72;;;;;;;9.79;61.33;102329.81;4916899;29;20055;-67
2022/11/30 08:16:11;;;;;;;9.27;8.30;;;;;;;9.80;61.34;102331.56;4916862;29;20051;-68
2022/11/30 08:18:39;;;;;;;8.80;7.82;;;;;;;9.82;61.39;102332.34;4917508;29;20052;-67
2022/11/30 08:21:07;;;;;;;8.93;8.00;;;;;;;9.85;61.47;102336.72;4916848;29;20553;-67
2022/11/30 08:23:39;;;;;;;10.85;7.68;;;;;;;9.87;61.39;102337.50;4916243;29;20048;-67
2022/11/30 08:26:28;;;;;;;7.45;6.65;;;;;;;9.86;61.48;102341.13;4910588;29;20049;-67
2022/11/30 08:28:55;;;;;;;10.57;8.63;;;;;;;9.86;61.73;102341.13;4898319;29;20399;-68
2022/11/30 08:31:25;;;;;;;9.95;7.65;;;;;;;9.87;61.54;102340.19;4898098;29;20494;-68
2022/11/30 08:34:00;;;;;;;9.15;8.10;;;;;;;9.90;61.48;102344.56;4897767;29;20109;-67
2022/11/30 08:36:28;;;;;;;13.35;8.65;;;;;;;9.93;61.48;102344.41;4898204;29;20067;-67
2022/11/30 08:38:59;;;;;;;11.05;9.07;;;;;;;9.95;61.68;102348.78;4898191;29;20049;-67
2022/11/30 08:41:26;;;;;;;11.23;9.23;;;;;;;9.99;61.77;102358.44;4911460;29;20112;-68
2022/11/30 08:43:53;;;;;;;12.43;9.55;;;;;;;10.03;61.99;102359.16;4916570;29;20048;-67
2022/11/30 08:46:21;;;;;;;11.50;8.93;;;;;;;10.05;61.95;102360.84;4916585;29;20099;-67
2022/11/30 08:49:08;;;;;;;11.88;8.82;;;;;;;10.12;61.76;102354.25;4916428;29;20048;-67
2022/11/30 08:51:53;;;;;;;13.73;10.32;;;;;;;10.16;62.17;102355.88;4919490;29;20046;-67
2022/11/30 08:54:45;;;;;;;15.48;11.20;;;;;;;10.20;61.85;102356.63;4919077;29;20063;-67
2022/11/30 08:57:32;;;;;;;16.95;13.07;;;;;;;10.25;61.97;102359.09;4919952;29;20055;-68
2022/11/30 08:59:58;;;;;;;18.52;13.13;;;;;;;10.27;62.06;102351.84;4919926;29;20044;-68
2022/11/30 09:02:25;;;;;;;16.95;11.13;;;;;;;10.32;62.45;102355.19;4905243;29;20100;-67
2022/11/30 09:04:52;;;;;;;15.68;12.43;;;;;;;10.35;62.41;102352.38;4919261;29;20044;-68
2022/11/30 09:07:18;;;;;;;16.92;13.18;;;;;;;10.41;62.41;102354.81;4919515;29;20048;-68
2022/11/30 09:09:45;;;;;;;17.38;13.52;;;;;;;10.44;62.55;102357.34;4920043;29;20075;-68
2022/11/30 09:12:12;;;;;;;19.60;14.85;;;;;;;10.49;62.72;102364.25;4918461;29;21351;-68
2022/11/30 09:14:39;;;;;;;22.40;16.10;;;;;;;10.53;62.67;102373.03;4919779;29;20092;-68
2022/11/30 09:17:05;;;;;;;25.30;17.80;;;;;;;10.56;62.51;102378.25;4919705;29;20107;-67
2022/11/30 09:19:32;;;;;;;32.30;20.98;;;;;;;10.59;62.65;102369.19;4919777;29;20056;-68
2022/11/30 09:21:59;;;;;;;31.23;21.67;;;;;;;10.60;62.87;102376.31;4918927;29;20448;-68
2022/11/30 09:24:25;;;;;;;32.00;21.65;;;;;;;10.63;62.88;102371.66;4919482;29;20111;-68
2022/11/30 09:26:55;;;;;;;29.35;21.58;;;;;;;10.67;62.96;102377.75;4919441;29;20074;-68
2022/11/30 09:29:22;;;;;;;33.03;22.80;;;;;;;10.68;62.89;102374.13;4919772;29;20055;-67
2022/11/30 09:31:50;;;;;;;33.72;22.73;;;;;;;10.72;63.00;102383.78;4902945;29;20044;-67
2022/11/30 09:34:17;;;;;;;35.70;23.33;;;;;;;10.75;63.17;102387.19;4919654;29;20534;-67
2022/11/30 09:36:43;;;;;;;42.13;23.27;;;;;;;10.78;63.12;102386.19;4919871;29;20048;-69
2022/11/30 09:39:11;;;;;;;33.88;21.73;;;;;;;10.81;63.34;102380.66;4919523;29;20051;-67
2022/11/30 09:41:52;;;;;;;34.03;22.95;;;;;;;10.85;63.26;102384.09;4902323;29;20062;-67
2022/11/30 09:44:22;;;;;;;32.90;22.48;;;;;;;10.88;63.34;102389.31;4902637;29;20048;-68
2022/11/30 09:47:03;;;;;;;36.35;23.15;;;;;;;10.91;63.35;102391.84;4919065;29;20044;-68
2022/11/30 09:49:36;;;;;;;35.45;23.60;;;;;;;10.92;63.39;102383.72;4919327;29;20056;-67
2022/11/30 09:52:08;;;;;;;32.65;22.77;;;;;;;10.93;63.33;102384.59;4919044;29;20067;-67
2022/11/30 09:54:37;;;;;;;33.00;22.70;;;;;;;10.94;63.58;102384.50;4918030;29;20099;-67
2022/11/30 09:57:31;;;;;;;35.20;24.08;;;;;;;10.94;63.58;102383.63;4918825;29;20042;-67
2022/11/30 10:00:01;;;;;;;39.97;24.55;;;;;;;10.94;63.65;102384.50;4919997;29;20070;-67
2022/11/30 10:02:38;;;;;;;37.30;24.33;;;;;;;10.96;63.79;102379.06;4917214;29;20425;-68
2022/11/30 10:05:14;;;;;;;32.95;23.40;;;;;;;10.96;63.85;102382.63;4902384;29;20040;-69
2022/11/30 10:07:50;;;;;;;40.72;25.70;;;;;;;10.99;63.79;102377.09;4902285;29;20439;-65
2022/11/30 10:10:34;;;;;;;40.53;25.33;;;;;;;11.01;63.70;102371.66;4918675;29;20058;-66
2022/11/30 10:13:04;;;;;;;38.70;25.58;;;;;;;11.06;63.58;102375.84;4918496;29;20398;-65
2022/11/30 10:15:43;;;;;;;43.40;27.52;;;;;;;11.09;63.52;102378.38;4918677;29;20434;-66
2022/11/30 10:18:22;;;;;;;39.92;26.65;;;;;;;11.10;63.71;102368.50;4900134;29;20060;-67
2022/11/30 10:21:04;;;;;;;47.03;27.77;;;;;;;11.09;63.75;102367.63;4901235;29;20048;-67
2022/11/30 10:23:57;;;;;;;45.05;28.38;;;;;;;11.11;63.73;102367.56;4885308;29;20507;-66
2022/11/30 10:26:37;;;;;;;45.95;28.20;;;;;;;11.12;63.58;102364.78;4906171;29;20052;-67
2022/11/30 10:29:17;;;;;;;40.78;26.85;;;;;;;11.14;63.75;102365.59;4937638;29;20099;-67
2022/11/30 10:31:48;;;;;;;40.38;27.55;;;;;;;11.17;63.75;102367.28;4925835;29;20036;-67
2022/11/30 10:34:19;;;;;;;41.58;27.60;;;;;;;11.17;63.95;102367.28;4918067;29;20411;-67
2022/11/30 10:37:12;;;;;;;45.50;29.35;;;;;;;11.18;64.01;102369.03;4917711;29;20036;-66
2022/11/30 10:39:57;;;;;;;43.15;27.67;;;;;;;11.22;63.88;102367.94;4917218;29;20056;-66
2022/11/30 10:42:31;;;;;;;45.13;28.13;;;;;;;11.24;63.96;102362.47;4900853;29;20135;-66
2022/11/30 10:44:59;;;;;;;41.17;27.65;;;;;;;11.27;63.88;102359.63;4900805;29;20411;-66
2022/11/30 10:47:35;;;;;;;44.70;28.92;;;;;;;11.31;63.81;102363.91;4917558;29;20066;-67
2022/11/30 10:50:06;;;;;;;43.63;28.52;;;;;;;11.36;63.94;102362.72;4918403;29;20055;-67
2022/11/30 10:52:59;;;;;;;45.17;27.80;;;;;;;11.36;64.01;102357.34;4912553;29;20048;-65
2022/11/30 10:55:34;;;;;;;43.13;28.30;;;;;;;11.40;63.69;102356.25;4907436;29;20060;-68
2022/11/30 10:58:12;;;;;;;44.15;28.60;;;;;;;11.42;63.88;102357.03;4900840;29;20099;-68
2022/11/30 11:00:38;;;;;;;50.67;31.27;;;;;;;11.42;63.79;102351.66;4917845;29;20107;-68
2022/11/30 11:03:23;;;;;;;48.30;29.58;;;;;;;11.43;63.87;102352.53;4917575;29;20044;-68
2022/11/30 11:06:19;;;;;;;46.08;30.38;;;;;;;11.46;64.06;102352.38;4917579;29;20052;-67
2022/11/30 11:08:46;;;;;;;46.30;29.38;;;;;;;11.49;64.13;102352.22;4916398;29;20503;-68
2022/11/30 11:11:36;;;;;;;45.28;29.63;;;;;;;11.51;63.98;102346.75;4916434;29;20040;-67
2022/11/30 11:14:15;;;;;;;47.03;30.23;;;;;;;11.51;63.74;102346.75;4916377;29;20071;-68
2022/11/30 11:16:56;;;;;;;45.58;30.35;;;;;;;11.50;64.08;102345.88;4916463;29;20099;-68
2022/11/30 11:19:40;;;;;;;45.45;30.05;;;;;;;11.52;63.89;102338.63;4916411;29;20403;-68
2022/11/30 11:22:20;;;;;;;40.58;28.42;;;;;;;11.55;64.09;102341.16;4916726;29;20040;-68
2022/11/30 11:24:49;;;;;;;42.90;30.00;;;;;;;11.57;64.18;102338.38;4917791;29;20044;-68
2022/11/30 11:27:30;;;;;;;45.47;28.25;;;;;;;11.62;64.32;102336.31;4917734;29;20396;-68
2022/11/30 11:30:27;;;;;;;42.03;27.75;;;;;;;11.70;64.24;102344.88;4917626;29;20052;-68